sensor_id;sensor_type;location;lat;lon;timestamp;pressure;altitude;pressure_sealevel;temperature;humidity
70943;BME280;59154;51.970;5.650;2022-12-18T00:00:05;102800;;;-1.82041;89.0
70943;BME280;59154;51.970;5.650;2022-12-18T00:05:02;102800;;;-2.13567;89.8
70943;BME280;59154;51.970;5.650;2022-12-18T00:10:04;102800;;;-2.17635;90.0
70943;BME280;59154;51.970;5.650;2022-12-18T00:15:03;102800;;;-2.0594;89.6
70943;BME280;59154;51.970;5.650;2022-12-18T00:20:04;102800;;;-2.36957;90.3
70943;BME280;59154;51.970;5.650;2022-12-18T00:25:03;102800;;;-2.30856;90.2
70943;BME280;59154;51.970;5.650;2022-12-18T00:30:03;102800;;;-2.41534;89.9
70943;BME280;59154;51.970;5.650;2022-12-18T00:35:03;102800;;;-2.50687;89.9
70943;BME280;59154;51.970;5.650;2022-12-18T00:40:05;102800;;;-2.64416;90.3
70943;BME280;59154;51.970;5.650;2022-12-18T00:45:02;102800;;;-2.43059;89.0
70943;BME280;59154;51.970;5.650;2022-12-18T00:50:04;102800;;;-2.65433;89.2
70943;BME280;59154;51.970;5.650;2022-12-18T00:55:03;102800;;;-2.8984;89.8
70943;BME280;59154;51.970;5.650;2022-12-18T01:00:05;102800;;;-2.92382;90.3
70943;BME280;59154;51.970;5.650;2022-12-18T01:05:03;102800;;;-3.21366;91.1
70943;BME280;59154;51.970;5.650;2022-12-18T01:10:04;102800;;;-3.26959;91.2
70943;BME280;59154;51.970;5.650;2022-12-18T01:15:03;102800;;;-3.33569;91.8
70943;BME280;59154;51.970;5.650;2022-12-18T01:20:05;102800;;;-3.39671;92.0
70943;BME280;59154;51.970;5.650;2022-12-18T01:25:04;102800;;;-3.49332;92.2
70943;BME280;59154;51.970;5.650;2022-12-18T01:30:04;102800;;;-3.35603;91.7
70943;BME280;59154;51.970;5.650;2022-12-18T01:35:04;102800;;;-3.52891;91.6
70943;BME280;59154;51.970;5.650;2022-12-18T01:40:04;102800;;;-3.52891;91.6
70943;BME280;59154;51.970;5.650;2022-12-18T01:45:06;102800;;;-3.65095;91.2
70943;BME280;59154;51.970;5.650;2022-12-18T01:50:06;102800;;;-3.57976;90.8
70943;BME280;59154;51.970;5.650;2022-12-18T01:55:05;102800;;;-3.534;90.4
70943;BME280;59154;51.970;5.650;2022-12-18T02:00:06;102800;;;-3.63061;90.4
70943;BME280;59154;51.970;5.650;2022-12-18T02:05:03;102800;;;-3.7018;90.5
70943;BME280;59154;51.970;5.650;2022-12-18T02:10:06;102800;;;-3.71197;90.4
70943;BME280;59154;51.970;5.650;2022-12-18T02:15:07;102800;;;-3.65603;90.1
70943;BME280;59154;51.970;5.650;2022-12-18T02:20:09;102800;;;-3.69163;90.3
70943;BME280;59154;51.970;5.650;2022-12-18T02:25:15;102800;;;-3.67637;90.2
70943;BME280;59154;51.970;5.650;2022-12-18T02:30:04;102800;;;-3.65603;89.9
70943;BME280;59154;51.970;5.650;2022-12-18T02:35:04;102800;;;-3.68146;90.2
70943;BME280;59154;51.970;5.650;2022-12-18T02:40:05;102800;;;-3.78824;90.4
70943;BME280;59154;51.970;5.650;2022-12-18T02:45:04;102800;;;-3.64078;89.7
70943;BME280;59154;51.970;5.650;2022-12-18T02:50:08;102800;;;-3.6662;89.6
70943;BME280;59154;51.970;5.650;2022-12-18T02:55:14;102800;;;-3.63061;89.4
70943;BME280;59154;51.970;5.650;2022-12-18T03:00:07;102800;;;-3.71197;89.7
70943;BME280;59154;51.970;5.650;2022-12-18T03:05:08;102800;;;-3.64078;89.4
70943;BME280;59154;51.970;5.650;2022-12-18T03:10:03;102800;;;-3.68146;89.5
70943;BME280;59154;51.970;5.650;2022-12-18T03:15:06;102800;;;-3.79332;90.1
70943;BME280;59154;51.970;5.650;2022-12-18T03:20:08;102800;;;-3.88993;90.6
70943;BME280;59154;51.970;5.650;2022-12-18T03:25:05;102800;;;-3.93061;90.9
70943;BME280;59154;51.970;5.650;2022-12-18T03:30:07;102800;;;-3.94078;91.1
70943;BME280;59154;51.970;5.650;2022-12-18T03:35:04;102800;;;-3.99671;91.3
70943;BME280;59154;51.970;5.650;2022-12-18T03:40:04;102700;;;-4.07807;91.4
70943;BME280;59154;51.970;5.650;2022-12-18T03:45:08;102700;;;-3.91536;90.6
70943;BME280;59154;51.970;5.650;2022-12-18T03:50:10;102700;;;-4.04248;90.8
70943;BME280;59154;51.970;5.650;2022-12-18T03:55:03;102700;;;-4.08824;90.9
70943;BME280;59154;51.970;5.650;2022-12-18T04:00:08;102700;;;-4.09841;90.8
70943;BME280;59154;51.970;5.650;2022-12-18T04:05:05;102700;;;-3.91536;90.1
70943;BME280;59154;51.970;5.650;2022-12-18T04:10:06;102700;;;-4.05265;90.2
70943;BME280;59154;51.970;5.650;2022-12-18T04:15:02;102700;;;-4.12892;90.3
70943;BME280;59154;51.970;5.650;2022-12-18T04:20:04;102700;;;-4.13909;90.4
70943;BME280;59154;51.970;5.650;2022-12-18T04:25:02;102700;;;-4.22044;90.2
70943;BME280;59154;51.970;5.650;2022-12-18T04:30:04;102700;;;-4.22553;90.1
70943;BME280;59154;51.970;5.650;2022-12-18T04:35:03;102700;;;-4.26112;90.0
70943;BME280;59154;51.970;5.650;2022-12-18T04:40:05;102700;;;-4.13909;89.6
70943;BME280;59154;51.970;5.650;2022-12-18T04:45:03;102700;;;-4.32214;90.1
70943;BME280;59154;51.970;5.650;2022-12-18T04:50:04;102700;;;-4.25095;89.9
70943;BME280;59154;51.970;5.650;2022-12-18T04:55:02;102700;;;-4.26621;89.9
70943;BME280;59154;51.970;5.650;2022-12-18T05:00:04;102700;;;-4.18993;89.8
70943;BME280;59154;51.970;5.650;2022-12-18T05:05:03;102700;;;-4.15943;89.5
70943;BME280;59154;51.970;5.650;2022-12-18T05:10:03;102700;;;-4.13909;89.6
70943;BME280;59154;51.970;5.650;2022-12-18T05:15:03;102800;;;-4.134;89.5
70943;BME280;59154;51.970;5.650;2022-12-18T05:20:04;102800;;;-4.134;89.5
70943;BME280;59154;51.970;5.650;2022-12-18T05:25:02;102800;;;-4.11366;89.3
70943;BME280;59154;51.970;5.650;2022-12-18T05:30:03;102800;;;-4.14926;89.4
70943;BME280;59154;51.970;5.650;2022-12-18T05:35:03;102800;;;-4.18993;89.4
70943;BME280;59154;51.970;5.650;2022-12-18T05:40:04;102800;;;-4.21536;89.4
70943;BME280;59154;51.970;5.650;2022-12-18T05:45:02;102800;;;-4.18993;89.3
70943;BME280;59154;51.970;5.650;2022-12-18T05:50:03;102800;;;-4.28654;89.5
70943;BME280;59154;51.970;5.650;2022-12-18T05:55:03;102800;;;-4.3679;89.6
70943;BME280;59154;51.970;5.650;2022-12-18T06:00:04;102800;;;-4.24587;89.3
70943;BME280;59154;51.970;5.650;2022-12-18T06:05:03;102700;;;-4.2001;89.3
70943;BME280;59154;51.970;5.650;2022-12-18T06:10:03;102700;;;-4.21536;89.3
70943;BME280;59154;51.970;5.650;2022-12-18T06:15:02;102700;;;-4.18993;89.3
70943;BME280;59154;51.970;5.650;2022-12-18T06:20:05;102700;;;-4.14926;89.5
70943;BME280;59154;51.970;5.650;2022-12-18T06:25:03;102700;;;-4.12383;89.5
70943;BME280;59154;51.970;5.650;2022-12-18T06:30:04;102700;;;-4.07807;89.4
70943;BME280;59154;51.970;5.650;2022-12-18T06:35:03;102700;;;-4.0679;89.4
70943;BME280;59154;51.970;5.650;2022-12-18T06:40:04;102700;;;-4.0679;89.5
70943;BME280;59154;51.970;5.650;2022-12-18T06:45:03;102700;;;-4.03739;89.5
70943;BME280;59154;51.970;5.650;2022-12-18T06:50:03;102700;;;-3.97637;89.1
70943;BME280;59154;51.970;5.650;2022-12-18T06:55:03;102700;;;-3.97637;89.1
70943;BME280;59154;51.970;5.650;2022-12-18T07:00:05;102700;;;-4.04248;89.3
70943;BME280;59154;51.970;5.650;2022-12-18T07:05:03;102700;;;-4.11366;89.3
70943;BME280;59154;51.970;5.650;2022-12-18T07:10:04;102700;;;-4.09332;89.4
70943;BME280;59154;51.970;5.650;2022-12-18T07:15:03;102700;;;-4.05773;89.3
70943;BME280;59154;51.970;5.650;2022-12-18T07:20:04;102700;;;-4.07807;89.4
70943;BME280;59154;51.970;5.650;2022-12-18T07:25:03;102700;;;-4.04248;89.1
70943;BME280;59154;51.970;5.650;2022-12-18T07:30:03;102700;;;-4.11366;89.1
70943;BME280;59154;51.970;5.650;2022-12-18T07:35:03;102700;;;-4.08824;89.1
70943;BME280;59154;51.970;5.650;2022-12-18T07:40:03;102700;;;-4.11875;89.3
70943;BME280;59154;51.970;5.650;2022-12-18T07:45:03;102600;;;-4.06282;89.3
70943;BME280;59154;51.970;5.650;2022-12-18T07:50:04;102600;;;-4.08824;89.5
70943;BME280;59154;51.970;5.650;2022-12-18T07:55:03;102600;;;-3.98654;89.2
70943;BME280;59154;51.970;5.650;2022-12-18T08:00:04;102600;;;-3.98654;89.2
70943;BME280;59154;51.970;5.650;2022-12-18T08:05:02;102600;;;-3.89502;89.3
70943;BME280;59154;51.970;5.650;2022-12-18T08:10:03;102600;;;-3.85434;89.3
70943;BME280;59154;51.970;5.650;2022-12-18T08:15:02;102600;;;-3.7679;89.1
70943;BME280;59154;51.970;5.650;2022-12-18T08:20:03;102600;;;-3.72722;89.0
70943;BME280;59154;51.970;5.650;2022-12-18T08:25:03;102600;;;-3.50857;88.5
70943;BME280;59154;51.970;5.650;2022-12-18T08:30:04;102600;;;-3.49332;88.5
70943;BME280;59154;51.970;5.650;2022-12-18T08:35:02;102600;;;-3.38654;88.3
70943;BME280;59154;51.970;5.650;2022-12-18T08:40:04;102600;;;-3.34586;88.1
70943;BME280;59154;51.970;5.650;2022-12-18T08:45:03;102600;;;-3.23908;87.9
70943;BME280;59154;51.970;5.650;2022-12-18T08:50:02;102600;;;-3.31535;88.3
70943;BME280;59154;51.970;5.650;2022-12-18T08:55:03;102600;;;-3.11196;87.6
70943;BME280;59154;51.970;5.650;2022-12-18T09:00:04;102600;;;-3.11196;87.7
70943;BME280;59154;51.970;5.650;2022-12-18T09:05:02;102600;;;-2.97976;87.8
70943;BME280;59154;51.970;5.650;2022-12-18T09:10:04;102600;;;-2.94925;87.9
70943;BME280;59154;51.970;5.650;2022-12-18T09:15:03;102600;;;-2.8628;87.9
70943;BME280;59154;51.970;5.650;2022-12-18T09:20:04;102600;;;-2.75602;87.7
70943;BME280;59154;51.970;5.650;2022-12-18T09:25:02;102600;;;-2.53229;87.4
70943;BME280;59154;51.970;5.650;2022-12-18T09:30:04;102600;;;-2.43059;87.1
70943;BME280;59154;51.970;5.650;2022-12-18T09:35:03;102600;;;-2.25262;87.0
70943;BME280;59154;51.970;5.650;2022-12-18T09:40:03;102600;;;-2.21194;86.9
70943;BME280;59154;51.970;5.650;2022-12-18T09:45:03;102600;;;-2.04414;86.4
70943;BME280;59154;51.970;5.650;2022-12-18T09:50:06;102600;;;-1.86617;85.8
70943;BME280;59154;51.970;5.650;2022-12-18T09:55:09;102600;;;-1.85092;86.1
70943;BME280;59154;51.970;5.650;2022-12-18T10:00:15;102600;;;-1.82549;85.9
70943;BME280;59154;51.970;5.650;2022-12-18T10:05:05;102600;;;-1.62718;85.5
70943;BME280;59154;51.970;5.650;2022-12-18T10:10:09;102600;;;-1.47972;85.2
70943;BME280;59154;51.970;5.650;2022-12-18T10:15:10;102600;;;-1.4543;85.1
70943;BME280;59154;51.970;5.650;2022-12-18T10:20:10;102600;;;-1.44413;84.8
70943;BME280;59154;51.970;5.650;2022-12-18T10:25:09;102600;;;-1.17463;84.0
70943;BME280;59154;51.970;5.650;2022-12-18T10:30:12;102500;;;-1.13903;83.4
70943;BME280;59154;51.970;5.650;2022-12-18T10:35:03;102500;;;-1.17463;83.4
70943;BME280;59154;51.970;5.650;2022-12-18T10:40:09;102500;;;-1.07801;83.0
70943;BME280;59154;51.970;5.650;2022-12-18T10:45:08;102500;;;-0.8797;82.4
70943;BME280;59154;51.970;5.650;2022-12-18T10:50:03;102500;;;-0.80343;82.3
70943;BME280;59154;51.970;5.650;2022-12-18T10:55:04;102500;;;-0.86444;82.1
70943;BME280;59154;51.970;5.650;2022-12-18T11:00:36;102500;;;-0.84919;81.9
70943;BME280;59154;51.970;5.650;2022-12-18T11:05:23;102500;;;-0.6102;81.8
70943;BME280;59154;51.970;5.650;2022-12-18T11:10:03;102500;;;-0.60003;81.6
70943;BME280;59154;51.970;5.650;2022-12-18T11:15:03;102500;;;-0.51358;81.4
70943;BME280;59154;51.970;5.650;2022-12-18T11:20:05;102500;;;-0.38646;81.1
70943;BME280;59154;51.970;5.650;2022-12-18T11:25:05;102500;;;-0.39663;81.1
70943;BME280;59154;51.970;5.650;2022-12-18T11:30:09;102500;;;-0.22374;81.0
70943;BME280;59154;51.970;5.650;2022-12-18T11:35:11;102500;;;-0.2034;80.8
70943;BME280;59154;51.970;5.650;2022-12-18T11:40:09;102500;;;-0.22882;81.2
70943;BME280;59154;51.970;5.650;2022-12-18T11:45:17;102500;;;0.04068;79.9
70943;BME280;59154;51.970;5.650;2022-12-18T11:50:11;102500;;;0.14238;79.6
70943;BME280;59154;51.970;5.650;2022-12-18T11:55:11;102500;;;0.16272;79.7
70943;BME280;59154;51.970;5.650;2022-12-18T12:00:11;102400;;;0.29493;79.5
70943;BME280;59154;51.970;5.650;2022-12-18T12:05:15;102400;;;0.32544;79.6
70943;BME280;59154;51.970;5.650;2022-12-18T12:10:13;102400;;;0.37629;79.5
70943;BME280;59154;51.970;5.650;2022-12-18T12:15:10;102400;;;0.43731;79.4
70943;BME280;59154;51.970;5.650;2022-12-18T12:20:12;102400;;;0.58478;78.4
70943;BME280;59154;51.970;5.650;2022-12-18T12:25:17;102400;;;0.6458;78.5
70943;BME280;59154;51.970;5.650;2022-12-18T12:30:06;102400;;;0.68648;78.5
70943;BME280;59154;51.970;5.650;2022-12-18T12:35:12;102400;;;0.70173;78.1
70943;BME280;59154;51.970;5.650;2022-12-18T12:40:04;102400;;;0.73733;78.4
70943;BME280;59154;51.970;5.650;2022-12-18T12:45:05;102400;;;0.87462;78.1
70943;BME280;59154;51.970;5.650;2022-12-18T12:50:11;102400;;;0.67122;78.2
70943;BME280;59154;51.970;5.650;2022-12-18T12:55:12;102400;;;0.70173;78.1
70943;BME280;59154;51.970;5.650;2022-12-18T13:00:07;102300;;;0.68648;78.2
70943;BME280;59154;51.970;5.650;2022-12-18T13:05:09;102300;;;0.75767;78.5
70943;BME280;59154;51.970;5.650;2022-12-18T13:10:36;102300;;;0.83394;78.3
70943;BME280;59154;51.970;5.650;2022-12-18T13:15:13;102300;;;0.80852;78.2
70943;BME280;59154;51.970;5.650;2022-12-18T13:20:07;102300;;;0.75767;78.2
70943;BME280;59154;51.970;5.650;2022-12-18T13:25:20;102300;;;0.85428;77.7
70943;BME280;59154;51.970;5.650;2022-12-18T13:30:41;102300;;;0.73224;77.5
70943;BME280;59154;51.970;5.650;2022-12-18T13:35:42;102300;;;0.80852;77.5
70943;BME280;59154;51.970;5.650;2022-12-18T13:40:56;102300;;;0.78818;77.8
70943;BME280;59154;51.970;5.650;2022-12-18T13:45:37;102300;;;0.85428;77.4
70943;BME280;59154;51.970;5.650;2022-12-18T13:50:11;102300;;;0.8492;77.3
70943;BME280;59154;51.970;5.650;2022-12-18T13:55:13;102300;;;0.84411;76.7
70943;BME280;59154;51.970;5.650;2022-12-18T14:00:24;102300;;;0.85937;76.8
70943;BME280;59154;51.970;5.650;2022-12-18T14:05:03;102300;;;0.89496;76.3
70943;BME280;59154;51.970;5.650;2022-12-18T14:10:03;102300;;;0.82886;76.3
70943;BME280;59154;51.970;5.650;2022-12-18T14:15:06;102300;;;0.78309;76.5
70943;BME280;59154;51.970;5.650;2022-12-18T14:20:04;102300;;;0.91022;76.4
70943;BME280;59154;51.970;5.650;2022-12-18T14:25:15;102300;;;0.82886;76.8
70943;BME280;59154;51.970;5.650;2022-12-18T14:30:23;102300;;;0.83394;76.8
70943;BME280;59154;51.970;5.650;2022-12-18T14:35:13;102300;;;0.84411;76.8
70943;BME280;59154;51.970;5.650;2022-12-18T14:40:04;102200;;;0.92039;76.3
70943;BME280;59154;51.970;5.650;2022-12-18T14:45:33;102200;;;0.95598;76.5
70943;BME280;59154;51.970;5.650;2022-12-18T14:50:03;102200;;;1.017;75.9
70943;BME280;59154;51.970;5.650;2022-12-18T14:55:02;102200;;;1.03226;75.9
70943;BME280;59154;51.970;5.650;2022-12-18T15:00:05;102200;;;1.06785;76.0
70943;BME280;59154;51.970;5.650;2022-12-18T15:05:04;102200;;;0.92039;76.8
70943;BME280;59154;51.970;5.650;2022-12-18T15:10:10;102200;;;1.00683;76.7
70943;BME280;59154;51.970;5.650;2022-12-18T15:15:04;102200;;;0.98649;76.4
70943;BME280;59154;51.970;5.650;2022-12-18T15:20:09;102200;;;1.05768;76.1
70943;BME280;59154;51.970;5.650;2022-12-18T15:30:22;102200;;;1.00175;76.1
70943;BME280;59154;51.970;5.650;2022-12-18T15:35:07;102200;;;0.95598;75.7
70943;BME280;59154;51.970;5.650;2022-12-18T15:40:05;102200;;;0.85428;75.5
70943;BME280;59154;51.970;5.650;2022-12-18T15:45:03;102200;;;0.96107;74.2
70943;BME280;59154;51.970;5.650;2022-12-18T15:50:04;102200;;;0.93564;73.8
70943;BME280;59154;51.970;5.650;2022-12-18T15:55:03;102200;;;0.99666;74.1
70943;BME280;59154;51.970;5.650;2022-12-18T16:00:04;102200;;;0.90513;74.0
70943;BME280;59154;51.970;5.650;2022-12-18T16:05:02;102200;;;0.99158;74.0
70943;BME280;59154;51.970;5.650;2022-12-18T16:10:03;102200;;;1.00683;73.7
70943;BME280;59154;51.970;5.650;2022-12-18T16:15:03;102200;;;0.86445;74.1
70943;BME280;59154;51.970;5.650;2022-12-18T16:20:04;102200;;;0.97124;73.9
70943;BME280;59154;51.970;5.650;2022-12-18T16:25:02;102200;;;0.88479;73.9
70943;BME280;59154;51.970;5.650;2022-12-18T16:30:03;102200;;;0.8492;74.1
70943;BME280;59154;51.970;5.650;2022-12-18T16:35:03;102200;;;0.85428;74.2
70943;BME280;59154;51.970;5.650;2022-12-18T16:40:03;102100;;;0.83903;74.0
70943;BME280;59154;51.970;5.650;2022-12-18T16:45:04;102100;;;0.79326;74.1
70943;BME280;59154;51.970;5.650;2022-12-18T16:50:03;102100;;;0.93056;73.8
70943;BME280;59154;51.970;5.650;2022-12-18T16:55:03;102100;;;0.79835;74.2
70943;BME280;59154;51.970;5.650;2022-12-18T17:00:04;102100;;;0.88479;74.0
70943;BME280;59154;51.970;5.650;2022-12-18T17:05:02;102100;;;0.86445;74.3
70943;BME280;59154;51.970;5.650;2022-12-18T17:10:03;102100;;;0.80343;74.4
70943;BME280;59154;51.970;5.650;2022-12-18T17:15:03;102100;;;0.86445;74.3
70943;BME280;59154;51.970;5.650;2022-12-18T17:20:05;102100;;;0.87462;74.1
70943;BME280;59154;51.970;5.650;2022-12-18T17:25:03;102100;;;0.9509;74.4
70943;BME280;59154;51.970;5.650;2022-12-18T20:05:03;102100;;;1.21532;77.5
70943;BME280;59154;51.970;5.650;2022-12-18T20:10:05;102100;;;1.16956;78.0
70943;BME280;59154;51.970;5.650;2022-12-18T20:15:03;102100;;;1.22549;78.2
70943;BME280;59154;51.970;5.650;2022-12-18T20:20:04;102100;;;1.17973;78.9
70943;BME280;59154;51.970;5.650;2022-12-18T20:25:03;102100;;;1.46449;79.4
70943;BME280;59154;51.970;5.650;2022-12-18T20:30:04;102100;;;1.58145;79.8
70943;BME280;59154;51.970;5.650;2022-12-18T20:35:03;102100;;;1.57636;80.2
70943;BME280;59154;51.970;5.650;2022-12-18T20:40:04;102100;;;1.62721;81.0
70943;BME280;59154;51.970;5.650;2022-12-18T20:45:03;102100;;;1.6984;82.6
70943;BME280;59154;51.970;5.650;2022-12-18T20:50:03;102100;;;1.52043;83.9
70943;BME280;59154;51.970;5.650;2022-12-18T20:55:04;102100;;;1.52043;84.4
70943;BME280;59154;51.970;5.650;2022-12-18T21:00:03;102100;;;1.51026;85.2
70943;BME280;59154;51.970;5.650;2022-12-18T21:05:02;102100;;;1.44415;85.9
70943;BME280;59154;51.970;5.650;2022-12-18T21:10:04;102100;;;1.34245;86.3
70943;BME280;59154;51.970;5.650;2022-12-18T21:15:05;102100;;;1.31194;86.7
70943;BME280;59154;51.970;5.650;2022-12-18T21:20:04;102100;;;1.40347;86.7
70943;BME280;59154;51.970;5.650;2022-12-18T21:25:02;102100;;;1.3933;87.6
70943;BME280;59154;51.970;5.650;2022-12-18T21:30:03;102000;;;1.30177;88.3
70943;BME280;59154;51.970;5.650;2022-12-18T21:35:02;102000;;;1.31194;88.4
70943;BME280;59154;51.970;5.650;2022-12-18T21:40:04;102000;;;1.22041;89.3
70943;BME280;59154;51.970;5.650;2022-12-18T21:45:03;102000;;;1.31702;89.9
70943;BME280;59154;51.970;5.650;2022-12-18T21:50:03;102000;;;1.31194;90.4
70943;BME280;59154;51.970;5.650;2022-12-18T21:55:03;102000;;;1.256;90.9
70943;BME280;59154;51.970;5.650;2022-12-18T22:00:04;102000;;;1.23058;91.3
70943;BME280;59154;51.970;5.650;2022-12-18T22:05:03;102000;;;1.55094;91.0
70943;BME280;59154;51.970;5.650;2022-12-18T22:10:04;102000;;;1.54585;90.9
70943;BME280;59154;51.970;5.650;2022-12-18T22:15:04;102000;;;1.67298;90.8
70943;BME280;59154;51.970;5.650;2022-12-18T22:20:04;102000;;;1.81536;90.5
70943;BME280;59154;51.970;5.650;2022-12-18T22:25:02;102000;;;1.47466;91.7
70943;BME280;59154;51.970;5.650;2022-12-18T22:30:03;102000;;;1.6323;91.5
70943;BME280;59154;51.970;5.650;2022-12-18T22:35:04;102000;;;1.44415;92.4
70943;BME280;59154;51.970;5.650;2022-12-18T22:40:04;101900;;;1.44415;92.0
70943;BME280;59154;51.970;5.650;2022-12-18T22:45:02;101900;;;1.47466;92.6
70943;BME280;59154;51.970;5.650;2022-12-18T22:50:03;101900;;;1.53568;92.4
70943;BME280;59154;51.970;5.650;2022-12-18T22:55:04;101900;;;1.56111;92.7
70943;BME280;59154;51.970;5.650;2022-12-18T23:00:04;101900;;;1.51026;93.0
70943;BME280;59154;51.970;5.650;2022-12-18T23:05:03;101900;;;1.41364;93.0
70943;BME280;59154;51.970;5.650;2022-12-18T23:10:03;101900;;;1.60179;93.0
70943;BME280;59154;51.970;5.650;2022-12-18T23:15:03;101900;;;1.58653;92.8
70943;BME280;59154;51.970;5.650;2022-12-18T23:20:03;101900;;;1.5967;93.0
70943;BME280;59154;51.970;5.650;2022-12-18T23:25:02;101800;;;1.54077;93.6
70943;BME280;59154;51.970;5.650;2022-12-18T23:30:03;101800;;;1.57128;93.4
70943;BME280;59154;51.970;5.650;2022-12-18T23:35:03;101800;;;1.61704;93.7
70943;BME280;59154;51.970;5.650;2022-12-18T23:40:04;101800;;;1.86113;92.8
70943;BME280;59154;51.970;5.650;2022-12-18T23:45:03;101800;;;1.82045;92.7
70943;BME280;59154;51.970;5.650;2022-12-18T23:50:04;101800;;;2.02385;92.2
70943;BME280;59154;51.970;5.650;2022-12-18T23:55:03;101800;;;2.01876;92.3
